Time;durP1;ratioP1;P1;durP2;ratioP2;P2;SDS_P1;SDS_P2;PMS_P1;PMS_P2;Temp;Humidity;BMP_temperature;BMP_pressure;BME280_temperature;BME280_humidity;BME280_pressure;Samples;Min_cycle;Max_cycle;Signal;HPM_P1;HPM_P2
2022/10/07 00:02:14;;;;;;;;;;;;;;;11.99;99.76;102039.97;10062648;29;19961;-71
2022/10/07 00:07:17;;;;;;;;;;;;;;;11.93;100.00;102026.88;10062558;29;19967;-67
2022/10/07 00:12:22;;;;;;;;;;;;;;;11.86;100.00;102032.84;10062626;29;19935;-66
2022/10/07 00:17:25;;;;;;;;;;;;;;;11.89;100.00;102038.13;10062267;29;20234;-69
2022/10/07 00:22:29;;;;;;;;;;;;;;;11.89;100.00;102038.13;10061986;29;19928;-77
2022/10/07 00:27:34;;;;;;;;;;;;;;;11.96;99.96;102034.72;10061398;29;19928;-77
2022/10/07 00:32:37;;;;;;;;;;;;;;;11.99;99.39;102027.84;10061849;29;19928;-78
2022/10/07 00:37:41;;;;;;;;;;;;;;;11.91;99.60;102026.00;10062611;29;19928;-75
2022/10/07 00:42:47;;;;;;;;;;;;;;;11.71;100.00;102027.47;10062860;29;19950;-76
2022/10/07 00:47:50;;;;;;;;;;;;;;;11.81;100.00;102040.63;10064870;29;20018;-76
2022/10/07 00:52:56;;;;;;;;;;;;;;;11.82;98.92;102031.09;10064242;29;20046;-77
2022/10/07 00:58:02;;;;;;;;;;;;;;;11.75;99.12;102026.69;10063984;29;19928;-75
2022/10/07 01:03:05;;;;;;;;;;;;;;;11.60;99.60;102025.59;10063968;29;19976;-76
2022/10/07 01:08:09;;;;;;;;;;;;;;;11.59;99.50;102028.19;10064033;29;19928;-75
2022/10/07 01:13:18;;;;;;;;;;;;;;;11.57;99.13;102024.69;10063277;29;19928;-76
2022/10/07 01:18:25;;;;;;;;;;;;;;;11.51;98.99;102027.19;10063290;29;20387;-76
2022/10/07 01:23:37;;;;;;;;;;;;;;;11.56;99.10;102023.81;10063251;29;19936;-71
2022/10/07 01:28:43;;;;;;;;;;;;;;;11.54;98.80;102030.69;10063042;29;19932;-76
2022/10/07 01:33:48;;;;;;;;;;;;;;;11.38;99.31;102028.78;10062758;29;19928;-75
2022/10/07 01:38:53;;;;;;;;;;;;;;;11.33;99.26;102026.97;10062461;29;20369;-76
2022/10/07 01:43:59;;;;;;;;;;;;;;;11.21;99.83;102034.59;10062834;29;19939;-78
2022/10/07 01:49:02;;;;;;;;;;;;;;;11.20;99.97;102030.25;10062523;29;19936;-75
2022/10/07 01:54:13;;;;;;;;;;;;;;;11.31;99.37;102024.34;10063683;29;19928;-73
2022/10/07 01:59:45;;;;;;;;;;;;;;;11.12;99.83;102031.84;10063226;29;19929;-76
2022/10/07 02:04:54;;;;;;;;;;;;;;;11.11;100.00;102028.38;10061893;29;19939;-70
2022/10/07 02:09:59;;;;;;;;;;;;;;;11.08;100.00;102030.94;10061825;29;20349;-74
2022/10/07 02:15:07;;;;;;;;;;;;;;;11.07;99.99;102026.59;10062115;29;20310;-73
2022/10/07 02:20:11;;;;;;;;;;;;;;;11.02;99.83;102033.47;10061883;29;19938;-76
2022/10/07 02:25:15;;;;;;;;;;;;;;;10.99;99.80;102032.53;10061777;29;19928;-72
2022/10/07 02:30:20;;;;;;;;;;;;;;;10.95;99.72;102030.75;10061876;29;19928;-75
2022/10/07 02:35:27;;;;;;;;;;;;;;;10.84;100.00;102033.16;10061368;29;20325;-75
2022/10/07 02:40:32;;;;;;;;;;;;;;;10.83;100.00;102031.44;10061782;29;19928;-72
2022/10/07 02:45:40;;;;;;;;;;;;;;;10.94;100.00;102035.06;10061375;29;20291;-73
2022/10/07 02:50:46;;;;;;;;;;;;;;;10.87;99.28;102027.16;10064440;29;20027;-74
2022/10/07 02:55:50;;;;;;;;;;;;;;;10.78;100.00;102033.09;10068475;29;19996;-73
2022/10/07 03:00:57;;;;;;;;;;;;;;;10.74;100.00;102040.78;10068005;29;20445;-75
2022/10/07 03:06:00;;;;;;;;;;;;;;;10.67;99.91;102038.94;10068177;29;19988;-74
2022/10/07 03:11:04;;;;;;;;;;;;;;;10.63;100.00;102030.22;10067888;29;19995;-76
2022/10/07 03:16:08;;;;;;;;;;;;;;;10.52;100.00;102033.50;10067698;29;20031;-74
2022/10/07 03:21:11;;;;;;;;;;;;;;;10.53;100.00;102025.72;10067584;29;19928;-76
2022/10/07 03:26:18;;;;;;;;;;;;;;;10.55;100.00;102033.53;10067485;29;19963;-76
2022/10/07 03:31:22;;;;;;;;;;;;;;;10.51;100.00;102031.75;10067270;29;19928;-74
2022/10/07 03:36:25;;;;;;;;;;;;;;;10.40;100.00;102031.56;10066868;29;19933;-74
2022/10/07 03:41:28;;;;;;;;;;;;;;;10.38;100.00;102028.97;10066571;29;20014;-76
2022/10/07 03:46:33;;;;;;;;;;;;;;;10.33;100.00;102029.72;10066645;29;19928;-74
2022/10/07 03:51:36;;;;;;;;;;;;;;;10.35;100.00;102018.50;10066496;29;19975;-76
2022/10/07 03:56:39;;;;;;;;;;;;;;;10.25;99.90;102020.94;10066154;29;19928;-74
2022/10/07 04:01:44;;;;;;;;;;;;;;;10.16;100.00;102023.34;10065870;29;20040;-73
2022/10/07 04:06:47;;;;;;;;;;;;;;;10.18;100.00;102019.94;10065886;29;19932;-74
2022/10/07 04:11:50;;;;;;;;;;;;;;;10.09;100.00;102016.31;10065757;29;20246;-75
2022/10/07 04:16:56;;;;;;;;;;;;;;;10.11;99.89;102006.84;10065562;29;20413;-76
2022/10/07 04:21:59;;;;;;;;;;;;;;;10.05;99.96;102014.47;10065376;29;20227;-74
2022/10/07 04:27:09;;;;;;;;;;;;;;;9.99;100.00;102009.16;10065259;29;19928;-74
2022/10/07 04:32:31;;;;;;;;;;;;;;;9.98;100.00;102002.22;10064955;29;19928;-75
2022/10/07 04:37:35;;;;;;;;;;;;;;;9.99;99.86;102006.59;10064956;29;19928;-73
2022/10/07 04:48:00;;;;;;;;;;;;;;;9.90;99.84;102003.81;10064741;29;19935;-71
2022/10/07 04:53:03;;;;;;;;;;;;;;;9.93;99.44;101999.56;10064280;29;19928;-68
2022/10/07 04:58:06;;;;;;;;;;;;;;;9.83;99.31;102000.22;10064728;29;19992;-72
2022/10/07 05:03:11;;;;;;;;;;;;;;;9.80;99.50;102002.75;10063219;29;20322;-71
2022/10/07 05:08:15;;;;;;;;;;;;;;;9.65;100.00;101999.84;10062849;29;19936;-72
2022/10/07 05:13:18;;;;;;;;;;;;;;;9.65;100.00;102001.56;10061617;29;20306;-72
2022/10/07 05:18:25;;;;;;;;;;;;;;;9.69;100.00;102004.25;10061142;29;19928;-74
2022/10/07 05:23:31;;;;;;;;;;;;;;;9.60;100.00;101995.41;10061532;29;19932;-72
2022/10/07 05:28:34;;;;;;;;;;;;;;;9.56;100.00;102004.84;9389864;29;10000795;-73
2022/10/07 05:33:39;;;;;;;;;;;;;;;9.46;100.00;102000.31;10054642;29;19936;-74
2022/10/07 05:38:42;;;;;;;;;;;;;;;9.47;100.00;102001.22;10056170;29;20011;-75
2022/10/07 05:43:46;;;;;;;;;;;;;;;9.50;100.00;102006.44;10062045;29;19928;-74
2022/10/07 05:48:52;;;;;;;;;;;;;;;9.43;100.00;102008.03;10058247;29;19940;-74
2022/10/07 05:53:55;;;;;;;;;;;;;;;9.42;100.00;102013.19;10058494;29;19934;-73
2022/10/07 05:58:59;;;;;;;;;;;;;;;9.47;100.00;102008.97;10053846;29;19928;-73
2022/10/07 06:04:06;;;;;;;;;;;;;;;9.53;100.00;102014.28;10020529;29;19958;-73
2022/10/07 06:14:31;;;;;;;;;;;;;;;9.55;100.00;102016.06;10044572;29;19936;-73
2022/10/07 06:19:37;;;;;;;;;;;;;;;9.60;100.00;102022.22;10053216;29;20011;-73
2022/10/07 06:24:40;;;;;;;;;;;;;;;9.73;100.00;102025.94;10060361;29;19938;-74
2022/10/07 06:29:43;;;;;;;;;;;;;;;9.75;100.00;102022.53;10065523;29;19938;-74
2022/10/07 06:34:48;;;;;;;;;;;;;;;9.80;100.00;102025.22;10065440;29;19944;-71
2022/10/07 06:39:51;;;;;;;;;;;;;;;9.90;100.00;102030.63;10036347;29;20086;-71
2022/10/07 06:45:00;;;;;;;;;;;;;;;9.99;100.00;102019.56;10027352;29;19935;-72
2022/10/07 06:50:05;;;;;;;;;;;;;;;10.17;100.00;102022.50;10027109;29;20019;-72
2022/10/07 06:55:09;;;;;;;;;;;;;;;10.35;100.00;102025.44;10027501;29;20003;-72
2022/10/07 07:00:14;;;;;;;;;;;;;;;10.47;100.00;102026.50;10026782;29;19936;-72
2022/10/07 07:05:19;;;;;;;;;;;;;;;10.54;100.00;102030.09;10026643;29;19929;-72
2022/10/07 07:10:22;;;;;;;;;;;;;;;10.63;100.00;102027.63;10026536;29;19935;-73
2022/10/07 07:15:26;;;;;;;;;;;;;;;10.71;100.00;102027.75;10026335;29;19964;-73
2022/10/07 07:20:36;;;;;;;;;;;;;;;10.72;100.00;102017.41;10026195;29;19928;-71
2022/10/07 07:25:44;;;;;;;;;;;;;;;10.90;100.00;102009.91;10026598;29;20026;-73
2022/10/07 07:30:49;;;;;;;;;;;;;;;11.04;100.00;102013.59;10027826;29;19943;-73
2022/10/07 07:35:56;;;;;;;;;;;;;;;11.15;100.00;102014.59;10025033;29;20284;-72
2022/10/07 07:41:03;;;;;;;;;;;;;;;11.28;100.00;102013.91;10026506;29;20011;-73
2022/10/07 07:46:06;;;;;;;;;;;;;;;11.35;100.00;102012.28;10025774;29;19992;-71
2022/10/07 07:51:11;;;;;;;;;;;;;;;11.39;100.00;102007.13;10056197;29;19967;-73
2022/10/07 07:56:14;;;;;;;;;;;;;;;11.46;100.00;102000.25;10063487;29;19936;-72
2022/10/07 08:01:18;;;;;;;;;;;;;;;11.51;100.00;102002.06;10061653;29;19938;-66
2022/10/07 08:06:23;;;;;;;;;;;;;;;11.59;100.00;102008.25;10062527;29;20363;-73
2022/10/07 08:11:27;;;;;;;;;;;;;;;11.77;100.00;101997.22;10062686;29;19928;-70
2022/10/07 08:16:31;;;;;;;;;;;;;;;11.95;100.00;101993.94;10062153;29;20276;-71
2022/10/07 08:21:35;;;;;;;;;;;;;;;12.22;100.00;101984.66;10032573;29;20028;-71
2022/10/07 08:26:38;;;;;;;;;;;;;;;12.40;100.00;101981.38;10024707;29;19929;-72
2022/10/07 08:31:42;;;;;;;;;;;;;;;12.56;100.00;101975.44;10031304;29;20011;-71
2022/10/07 08:36:48;;;;;;;;;;;;;;;12.76;100.00;101973.84;10023616;29;19936;-70
2022/10/07 08:41:54;;;;;;;;;;;;;;;12.98;100.00;101959.22;10023254;29;19932;-71
2022/10/07 08:47:05;;;;;;;;;;;;;;;13.30;100.00;101958.56;10022609;29;19933;-71
2022/10/07 08:52:19;;;;;;;;;;;;;;;13.59;100.00;101959.53;10022746;29;19929;-70
2022/10/07 08:57:30;;;;;;;;;;;;;;;13.93;100.00;101940.47;10022390;29;19940;-70
2022/10/07 09:02:40;;;;;;;;;;;;;;;14.25;100.00;101937.88;10022395;29;19940;-70
2022/10/07 09:07:46;;;;;;;;;;;;;;;14.55;100.00;101929.19;10034627;29;19928;-70
2022/10/07 09:12:53;;;;;;;;;;;;;;;14.87;97.61;101917.81;10061438;29;20563;-71
2022/10/07 09:17:59;;;;;;;;;;;;;;;15.21;93.41;101922.91;10060676;29;19928;-71
2022/10/07 09:23:04;;;;;;;;;;;;;;;15.52;91.91;101911.47;10059501;29;19928;-71
2022/10/07 09:28:11;;;;;;;;;;;;;;;15.88;89.39;101912.09;10059493;29;19964;-69
2022/10/07 09:33:16;;;;;;;;;;;;;;;16.24;88.65;101897.00;10058440;29;19928;-63
2022/10/07 09:38:30;;;;;;;;;;;;;;;16.63;85.62;101892.28;10059244;29;19991;-70
2022/10/07 09:43:34;;;;;;;;;;;;;;;17.12;84.66;101882.94;10031613;29;19928;-72
2022/10/07 09:48:50;;;;;;;;;;;;;;;17.62;79.33;101882.28;9724451;29;10000132;-71
2022/10/07 09:53:56;;;;;;;;;;;;;;;17.95;74.80;101860.78;10058837;29;20277;-73
2022/10/07 09:59:15;;;;;;;;;;;;;;;18.27;70.47;101849.72;10058794;29;19936;-73
2022/10/07 10:04:19;;;;;;;;;;;;;;;18.63;69.07;101841.19;10020656;29;20032;-73
2022/10/07 10:09:25;;;;;;;;;;;;;;;18.99;65.93;101834.31;10029774;29;19928;-72
2022/10/07 10:14:35;;;;;;;;;;;;;;;19.26;64.74;101824.03;10037168;29;19938;-72
2022/10/07 10:19:38;;;;;;;;;;;;;;;19.67;61.88;101825.78;10033621;29;19929;-73
2022/10/07 10:30:05;;;;;;;;;;;;;;;20.02;58.84;101806.47;10054302;29;19983;-73
2022/10/07 10:35:13;;;;;;;;;;;;;;;20.26;55.73;101798.78;10021383;29;20335;-74
2022/10/07 10:40:25;;;;;;;;;;;;;;;20.40;55.06;101798.41;10022507;29;19939;-75
2022/10/07 10:45:34;;;;;;;;;;;;;;;20.61;54.15;101774.94;10022878;29;20011;-74
2022/10/07 10:50:42;;;;;;;;;;;;;;;20.90;53.73;101767.94;10027676;29;20022;-75
2022/10/07 10:55:59;;;;;;;;;;;;;;;21.43;52.28;101757.44;9722638;29;9999909;-75
2022/10/07 11:01:08;;;;;;;;;;;;;;;21.89;51.63;101755.94;10057277;29;19932;-75
2022/10/07 11:06:12;;;;;;;;;;;;;;;22.43;50.91;101736.38;10057475;29;19955;-74
2022/10/07 11:11:21;;;;;;;;;;;;;;;23.06;49.59;101729.53;10060241;29;19948;-75
2022/10/07 11:16:27;;;;;;;;;;;;;;;23.46;47.96;101714.66;10067626;29;19954;-74
2022/10/07 11:21:33;;;;;;;;;;;;;;;23.72;46.96;101693.22;9729809;29;10000209;-74
2022/10/07 11:26:39;;;;;;;;;;;;;;;24.16;46.80;101693.09;10063768;29;20281;-75
2022/10/07 11:31:45;;;;;;;;;;;;;;;24.37;46.17;101678.81;10055394;29;20374;-75
2022/10/07 11:36:52;;;;;;;;;;;;;;;24.78;45.69;101667.19;10025140;29;19928;-76
2022/10/07 11:42:01;;;;;;;;;;;;;;;25.06;44.17;101657.78;10034007;29;20358;-75
2022/10/07 11:47:05;;;;;;;;;;;;;;;25.33;43.50;101649.38;10063463;29;19951;-74
2022/10/07 11:52:10;;;;;;;;;;;;;;;25.33;43.22;101636.94;10052779;29;20343;-75
2022/10/07 11:57:20;;;;;;;;;;;;;;;25.60;42.55;101627.59;9713924;29;10000449;-72
2022/10/07 12:02:43;;;;;;;;;;;;;;;25.53;42.95;101610.22;10053391;29;19928;-72
2022/10/07 12:07:57;;;;;;;;;;;;;;;25.54;42.45;101608.44;10027681;29;20011;-71
2022/10/07 12:13:24;;;;;;;;;;;;;;;25.38;42.28;101600.38;10027689;29;19929;-72
2022/10/07 12:18:28;;;;;;;;;;;;;;;25.45;42.44;101596.47;10027115;29;20275;-73
2022/10/07 12:23:36;;;;;;;;;;;;;;;25.29;42.31;101586.66;10025734;29;19942;-72
2022/10/07 12:28:46;;;;;;;;;;;;;;;25.46;41.95;101581.34;10026938;29;20405;-72
2022/10/07 12:33:54;;;;;;;;;;;;;;;25.70;41.89;101582.72;10026773;29;20239;-70
2022/10/07 12:39:30;;;;;;;;;;;;;;;25.67;42.86;101577.56;10026329;29;20033;-70
2022/10/07 12:44:37;;;;;;;;;;;;;;;25.54;43.31;101563.22;9947225;29;19989;-70
2022/10/07 12:49:42;;;;;;;;;;;;;;;25.36;42.69;101557.06;10008462;29;20011;-70
2022/10/07 12:54:48;;;;;;;;;;;;;;;24.73;45.03;101547.84;10026441;29;19928;-65
2022/10/07 12:59:57;;;;;;;;;;;;;;;24.18;46.29;101543.47;10025671;29;19929;-67
2022/10/07 13:05:18;;;;;;;;;;;;;;;23.99;45.99;101529.34;10025639;29;20319;-65
2022/10/07 13:10:31;;;;;;;;;;;;;;;23.95;45.93;101531.25;10025435;29;19929;-69
2022/10/07 13:15:41;;;;;;;;;;;;;;;23.58;45.73;101522.41;10052445;29;20038;-68
2022/10/07 13:20:51;;;;;;;;;;;;;;;23.15;46.20;101517.22;10063086;29;20019;-66
2022/10/07 13:25:55;;;;;;;;;;;;;;;22.80;47.64;101511.66;10062302;29;20346;-65
2022/10/07 13:31:11;;;;;;;;;;;;;;;22.20;48.02;101511.47;10063067;29;20018;-65
2022/10/07 13:36:16;;;;;;;;;;;;;;;21.55;50.17;101497.25;10061562;29;19938;-65
2022/10/07 13:41:21;;;;;;;;;;;;;;;21.29;52.00;101482.34;10062879;29;19928;-67
2022/10/07 13:46:27;;;;;;;;;;;;;;;21.11;52.40;101477.72;10061470;29;19935;-66
2022/10/07 13:51:32;;;;;;;;;;;;;;;20.82;53.09;101480.47;10062270;29;19958;-66
2022/10/07 13:56:38;;;;;;;;;;;;;;;20.43;53.52;101476.53;10061068;29;19929;-63
2022/10/07 14:01:43;;;;;;;;;;;;;;;20.17;54.03;101466.81;10061851;29;20019;-69
2022/10/07 14:06:52;;;;;;;;;;;;;;;19.93;55.09;101454.34;10058499;29;20018;-68
2022/10/07 14:11:56;;;;;;;;;;;;;;;19.75;56.33;101451.44;10060594;29;20354;-67
2022/10/07 14:17:07;;;;;;;;;;;;;;;19.63;57.38;101439.50;10060041;29;19935;-71
2022/10/07 14:22:16;;;;;;;;;;;;;;;19.46;58.03;101437.38;10060537;29;20264;-71
2022/10/07 14:27:38;;;;;;;;;;;;;;;19.40;58.41;101419.09;10059644;29;20421;-67
2022/10/07 14:38:18;;;;;;;;;;;;;;;19.30;60.23;101403.63;10058324;29;19932;-68
2022/10/07 14:43:21;;;;;;;;;;;;;;;19.09;61.34;101398.94;10058242;29;20421;-70
2022/10/07 14:48:25;;;;;;;;;;;;;;;18.95;61.99;101385.28;10065059;29;19996;-68
2022/10/07 14:53:28;;;;;;;;;;;;;;;18.80;62.85;101378.69;10067657;29;19967;-66
2022/10/07 14:58:32;;;;;;;;;;;;;;;18.67;63.68;101374.69;10065256;29;20011;-67
2022/10/07 15:03:36;;;;;;;;;;;;;;;18.58;64.84;101366.16;10066214;29;19995;-72
2022/10/07 15:08:39;;;;;;;;;;;;;;;18.61;65.96;101360.81;10066402;29;19980;-70
2022/10/07 15:13:45;;;;;;;;;;;;;;;18.52;67.05;101354.03;10066420;29;20352;-70
2022/10/07 15:18:50;;;;;;;;;;;;;;;18.34;67.38;101344.81;10066368;29;19928;-73
2022/10/07 15:23:55;;;;;;;;;;;;;;;18.37;67.88;101350.03;10065547;29;20045;-71
2022/10/07 15:28:59;;;;;;;;;;;;;;;18.37;68.61;101343.91;10064953;29;19967;-72
2022/10/07 15:34:03;;;;;;;;;;;;;;;18.13;69.83;101334.91;10066101;29;19928;-71
2022/10/07 15:39:07;;;;;;;;;;;;;;;17.96;71.17;101344.97;10064955;29;20023;-67
2022/10/07 15:44:14;;;;;;;;;;;;;;;17.86;72.92;101330.31;10064953;29;19928;-71
2022/10/07 15:49:19;;;;;;;;;;;;;;;17.75;73.84;101327.09;10063338;29;20018;-68
2022/10/07 15:54:22;;;;;;;;;;;;;;;17.60;75.12;101329.22;10065531;29;20342;-69
2022/10/07 15:59:25;;;;;;;;;;;;;;;17.85;74.92;101330.34;10065333;29;19939;-71
2022/10/07 16:04:30;;;;;;;;;;;;;;;17.68;75.30;101327.25;10064991;29;19938;-70
2022/10/07 16:09:33;;;;;;;;;;;;;;;17.43;77.14;101324.28;10063094;29;20006;-68
2022/10/07 16:14:36;;;;;;;;;;;;;;;17.30;77.58;101328.09;10065516;29;19928;-70
2022/10/07 16:19:40;;;;;;;;;;;;;;;17.16;77.87;101322.28;10065345;29;19995;-71
2022/10/07 16:24:43;;;;;;;;;;;;;;;17.32;77.98;101321.91;10065543;29;20402;-75
2022/10/07 16:35:08;;;;;;;;;;;;;;;17.14;80.09;101318.84;10066702;29;19939;-72
2022/10/07 16:40:12;;;;;;;;;;;;;;;16.98;80.86;101314.81;10065000;29;20429;-66
2022/10/07 16:45:15;;;;;;;;;;;;;;;16.87;81.90;101320.28;9726092;29;10000498;-76
2022/10/07 16:50:20;;;;;;;;;;;;;;;16.77;82.49;101321.38;10061136;29;20269;-73
2022/10/07 16:55:23;;;;;;;;;;;;;;;16.64;83.31;101319.00;10035789;29;19928;-66
2022/10/07 17:00:26;;;;;;;;;;;;;;;16.49;84.94;101308.81;10022247;29;20019;-68
2022/10/07 17:05:31;;;;;;;;;;;;;;;16.36;85.22;101302.06;10042347;29;20380;-68
2022/10/07 17:10:35;;;;;;;;;;;;;;;16.33;85.59;101296.84;10059705;29;20015;-65
2022/10/07 17:15:39;;;;;;;;;;;;;;;16.23;86.14;101296.16;10059433;29;20013;-65
2022/10/07 17:20:48;;;;;;;;;;;;;;;16.19;86.69;101290.13;10058538;29;19936;-67
2022/10/07 17:25:52;;;;;;;;;;;;;;;16.11;86.33;101285.91;10058588;29;19932;-66
2022/10/07 17:30:58;;;;;;;;;;;;;;;15.99;86.54;101287.00;10059087;29;19932;-64
2022/10/07 17:36:05;;;;;;;;;;;;;;;15.96;87.52;101288.81;10059481;29;19928;-71
2022/10/07 17:41:13;;;;;;;;;;;;;;;16.00;87.23;101283.47;10059054;29;19963;-71
2022/10/07 17:46:16;;;;;;;;;;;;;;;15.97;87.92;101282.66;10058386;29;19967;-70
2022/10/07 17:51:22;;;;;;;;;;;;;;;15.99;88.33;101281.78;10058795;29;19961;-68
2022/10/07 17:56:26;;;;;;;;;;;;;;;15.87;87.82;101274.13;10058777;29;19932;-73
2022/10/07 18:01:31;;;;;;;;;;;;;;;15.80;87.56;101272.50;10058253;29;19988;-70
2022/10/07 18:06:36;;;;;;;;;;;;;;;15.71;87.97;101263.91;10058456;29;19928;-68
2022/10/07 18:17:00;;;;;;;;;;;;;;;15.60;88.43;101253.63;10019077;29;20362;-72
2022/10/07 18:22:05;;;;;;;;;;;;;;;15.57;88.77;101253.69;10024819;29;19928;-69
2022/10/07 18:27:08;;;;;;;;;;;;;;;15.52;88.68;101254.63;10027316;29;20027;-71
2022/10/07 18:32:11;;;;;;;;;;;;;;;15.48;89.17;101245.97;10028961;29;20311;-69
2022/10/07 18:37:16;;;;;;;;;;;;;;;15.44;89.89;101246.94;10030317;29;20019;-71
2022/10/07 18:42:19;;;;;;;;;;;;;;;15.44;89.50;101243.44;10030885;29;19940;-72
2022/10/07 18:47:22;;;;;;;;;;;;;;;15.34;90.10;101237.44;10030733;29;19928;-71
2022/10/07 18:52:26;;;;;;;;;;;;;;;15.30;90.63;101237.50;10030595;29;20434;-69
2022/10/07 18:57:29;;;;;;;;;;;;;;;15.16;91.33;101240.34;10030290;29;20023;-69
2022/10/07 19:02:33;;;;;;;;;;;;;;;15.23;91.78;101247.22;10028555;29;19932;-73
2022/10/07 19:07:39;;;;;;;;;;;;;;;15.18;91.65;101238.56;10029558;29;20308;-69
2022/10/07 19:18:03;;;;;;;;;;;;;;;15.05;92.32;101237.88;10029316;29;19947;-73
2022/10/07 19:23:08;;;;;;;;;;;;;;;14.99;92.79;101245.81;10029444;29;19997;-68
2022/10/07 19:28:12;;;;;;;;;;;;;;;14.95;92.47;101243.25;10027776;29;20362;-70
2022/10/07 19:33:15;;;;;;;;;;;;;;;14.89;93.34;101238.13;10028425;29;20073;-69
2022/10/07 19:38:23;;;;;;;;;;;;;;;14.86;92.99;101230.28;10028856;29;20072;-69
2022/10/07 19:43:26;;;;;;;;;;;;;;;14.80;93.08;101223.44;10028610;29;19929;-69
2022/10/07 19:48:31;;;;;;;;;;;;;;;14.76;93.50;101220.84;10027399;29;20015;-72
2022/10/07 19:53:36;;;;;;;;;;;;;;;14.71;94.38;101215.69;10028491;29;20495;-70
2022/10/07 19:58:45;;;;;;;;;;;;;;;14.70;94.20;101207.88;10028302;29;19978;-73
2022/10/07 20:03:48;;;;;;;;;;;;;;;14.63;95.05;101212.31;10026701;29;19976;-69
2022/10/07 20:08:53;;;;;;;;;;;;;;;14.57;94.98;101198.47;10027713;29;20023;-70
2022/10/07 20:13:56;;;;;;;;;;;;;;;14.52;96.08;101198.53;10027647;29;19928;-69
2022/10/07 20:19:00;;;;;;;;;;;;;;;14.54;96.12;101199.38;10027454;29;19928;-70
2022/10/07 20:24:06;;;;;;;;;;;;;;;14.50;96.66;101194.19;9361266;29;10000467;-69
2022/10/07 20:29:10;;;;;;;;;;;;;;;14.53;96.00;101186.34;10062709;29;19932;-70
2022/10/07 20:34:14;;;;;;;;;;;;;;;14.45;96.28;101188.16;10061901;29;19928;-71
2022/10/07 20:44:40;;;;;;;;;;;;;;;14.40;96.03;101169.97;10061022;29;19928;-71
2022/10/07 20:49:43;;;;;;;;;;;;;;;14.33;96.53;101181.38;10061376;29;19967;-69
2022/10/07 20:54:48;;;;;;;;;;;;;;;14.29;96.77;101171.00;10061677;29;20429;-73
2022/10/07 20:59:51;;;;;;;;;;;;;;;14.17;98.14;101173.72;10061117;29;19947;-69
2022/10/07 21:04:55;;;;;;;;;;;;;;;14.21;97.41;101162.31;10060789;29;19928;-73
2022/10/07 21:09:59;;;;;;;;;;;;;;;14.16;98.01;101158.91;10060489;29;19932;-71
2022/10/07 21:15:03;;;;;;;;;;;;;;;14.10;97.55;101151.16;10060398;29;19928;-71
2022/10/07 21:20:06;;;;;;;;;;;;;;;14.03;98.72;101157.34;10060137;29;20026;-73
2022/10/07 21:25:11;;;;;;;;;;;;;;;13.98;98.79;101144.31;10060386;29;20023;-71
2022/10/07 21:30:14;;;;;;;;;;;;;;;14.03;98.72;101133.84;10059865;29;19928;-70
2022/10/07 21:35:17;;;;;;;;;;;;;;;13.96;98.44;101130.41;10059714;29;19928;-71
2022/10/07 21:40:22;;;;;;;;;;;;;;;13.80;98.63;101126.28;10059578;29;19928;-67
2022/10/07 21:45:27;;;;;;;;;;;;;;;13.57;100.00;101110.84;10059355;29;19928;-67
2022/10/07 21:50:30;;;;;;;;;;;;;;;13.51;100.00;101112.66;10059649;29;20015;-72
2022/10/07 21:55:37;;;;;;;;;;;;;;;13.55;100.00;101114.34;10059320;29;19988;-70
2022/10/07 22:00:40;;;;;;;;;;;;;;;13.57;100.00;101108.25;10058841;29;19980;-71
2022/10/07 22:05:43;;;;;;;;;;;;;;;13.60;100.00;101097.78;10059015;29;19928;-69
2022/10/07 22:10:47;;;;;;;;;;;;;;;13.57;100.00;101090.00;10058783;29;19934;-67
2022/10/07 22:15:50;;;;;;;;;;;;;;;13.60;100.00;101084.72;10042807;29;20027;-67
2022/10/07 22:20:54;;;;;;;;;;;;;;;13.62;100.00;101082.09;10020796;29;20434;-66
2022/10/07 22:26:02;;;;;;;;;;;;;;;13.61;100.00;101065.63;10039258;29;19928;-66
2022/10/07 22:31:06;;;;;;;;;;;;;;;13.54;100.00;101057.88;10058330;29;20269;-67
2022/10/07 22:36:10;;;;;;;;;;;;;;;13.50;100.00;101054.41;10058334;29;20386;-66
2022/10/07 22:41:16;;;;;;;;;;;;;;;13.52;100.00;101044.84;10058185;29;19928;-69
2022/10/07 22:46:24;;;;;;;;;;;;;;;13.54;100.00;101042.22;10059613;29;19942;-74
2022/10/07 22:51:28;;;;;;;;;;;;;;;13.65;100.00;101040.34;10061479;29;19928;-71
2022/10/07 22:56:32;;;;;;;;;;;;;;;13.62;100.00;101030.81;10061234;29;19996;-73
2022/10/07 23:01:36;;;;;;;;;;;;;;;13.58;100.00;101028.25;10061020;29;19995;-74
2022/10/07 23:06:39;;;;;;;;;;;;;;;13.59;100.00;101019.53;10062759;29;19928;-70
2022/10/07 23:11:43;;;;;;;;;;;;;;;13.55;100.00;101017.84;10068333;29;19928;-71
2022/10/07 23:16:46;;;;;;;;;;;;;;;13.49;100.00;101008.38;10068077;29;19939;-68
2022/10/07 23:21:49;;;;;;;;;;;;;;;13.35;100.00;101010.25;10067566;29;20314;-68
2022/10/07 23:26:54;;;;;;;;;;;;;;;13.30;100.00;101003.38;10067585;29;20498;-66
2022/10/07 23:31:57;;;;;;;;;;;;;;;13.18;100.00;101003.50;10067464;29;19928;-66
2022/10/07 23:37:00;;;;;;;;;;;;;;;13.24;100.00;100993.88;10067264;29;19928;-66
2022/10/07 23:42:04;;;;;;;;;;;;;;;13.23;100.00;100984.34;10067134;29;20011;-68
2022/10/07 23:47:07;;;;;;;;;;;;;;;13.22;100.00;100977.38;10067384;29;19928;-70
2022/10/07 23:52:11;;;;;;;;;;;;;;;13.18;100.00;100980.03;10066822;29;20235;-67
2022/10/07 23:57:16;;;;;;;;;;;;;;;13.14;100.00;100968.78;10066579;29;19968;-69
